Time;durP1;ratioP1;P1;durP2;ratioP2;P2;SDS_P1;SDS_P2;PMS_P1;PMS_P2;Temp;Humidity;BMP_temperature;BMP_pressure;BME280_temperature;BME280_humidity;BME280_pressure;Samples;Min_cycle;Max_cycle;Signal;HPM_P1;HPM_P2
2023/01/26 00:04:38;;;;;;;55.90;28.00;;;;;;;-3.12;98.83;101076.49;103353;1286;599449;-70
2023/01/26 00:07:08;;;;;;;39.70;20.80;;;;;;;-3.12;98.98;101071.61;105390;1272;63058;-71
2023/01/26 00:09:36;;;;;;;36.40;24.50;;;;;;;-3.09;99.47;101069.42;105120;1271;60941;-70
2023/01/26 00:12:05;;;;;;;37.60;24.70;;;;;;;-3.04;99.76;101064.84;105272;1272;72741;-68
2023/01/26 00:14:48;;;;;;;33.20;23.50;;;;;;;-2.98;99.46;101059.38;104668;1277;67647;-68
2023/01/26 00:17:24;;;;;;;28.20;20.10;;;;;;;-2.93;99.32;101055.61;104254;1270;545522;-70
2023/01/26 00:19:57;;;;;;;35.00;22.60;;;;;;;-2.85;99.46;101048.63;105419;1269;60083;-73
2023/01/26 00:22:28;;;;;;;30.90;21.50;;;;;;;-2.80;99.22;101040.80;106381;1269;61112;-71
2023/01/26 00:25:00;;;;;;;27.90;19.70;;;;;;;-2.74;99.08;101042.41;106806;1270;72726;-72
2023/01/26 00:27:31;;;;;;;26.40;18.80;;;;;;;-2.67;98.88;101048.48;105782;1267;67633;-69
2023/01/26 00:30:00;;;;;;;32.60;20.90;;;;;;;-2.63;98.41;101045.17;104650;1272;72497;-66
2023/01/26 00:32:34;;;;;;;21.80;15.50;;;;;;;-2.63;97.91;101039.33;103818;1267;1002580;-70
2023/01/26 00:35:04;;;;;;;34.00;22.10;;;;;;;-2.62;98.05;101041.73;104517;1270;59662;-69
2023/01/26 00:37:32;;;;;;;33.40;22.80;;;;;;;-2.61;98.29;101039.35;105414;1267;73890;-70
2023/01/26 00:40:00;;;;;;;29.80;20.00;;;;;;;-2.57;98.29;101039.16;104862;1270;68825;-67
2023/01/26 00:42:28;;;;;;;28.30;20.40;;;;;;;-2.54;98.17;101041.55;105416;1269;74575;-68
2023/01/26 00:44:57;;;;;;;35.00;24.20;;;;;;;-2.46;98.35;101038.58;104604;1270;60427;-68
2023/01/26 00:47:25;;;;;;;30.40;22.40;;;;;;;-2.41;98.01;101033.80;104711;1270;61815;-67
2023/01/26 00:49:53;;;;;;;31.00;20.70;;;;;;;-2.38;97.77;101030.55;104659;1269;74633;-67
2023/01/26 00:52:21;;;;;;;30.10;22.40;;;;;;;-2.41;97.40;101027.95;104682;1269;69729;-67
2023/01/26 00:54:50;;;;;;;30.00;21.10;;;;;;;-2.39;97.52;101025.32;104811;1268;72441;-67
2023/01/26 00:57:18;;;;;;;27.40;21.00;;;;;;;-2.36;97.21;101022.09;104958;1267;61272;-68
2023/01/26 00:59:46;;;;;;;26.90;20.30;;;;;;;-2.35;97.10;101019.11;105542;1259;60514;-67
2023/01/26 01:02:14;;;;;;;34.20;23.30;;;;;;;-2.35;96.54;101019.04;105421;1259;73600;-69
2023/01/26 01:04:43;;;;;;;30.50;22.50;;;;;;;-2.40;96.67;101018.23;105994;1254;67344;-68
2023/01/26 01:07:11;;;;;;;28.70;19.80;;;;;;;-2.44;96.56;101016.84;105602;1259;73560;-67
2023/01/26 01:09:39;;;;;;;27.20;20.00;;;;;;;-2.50;96.71;101014.16;105856;1260;60505;-69
2023/01/26 01:12:07;;;;;;;25.00;18.70;;;;;;;-2.51;96.70;101014.33;105753;1254;59710;-68
2023/01/26 01:14:37;;;;;;;26.30;20.30;;;;;;;-2.49;96.95;101013.70;105828;1254;73459;-67
2023/01/26 01:17:05;;;;;;;29.80;21.40;;;;;;;-2.47;97.12;101002.71;105597;1254;67827;-68
2023/01/26 01:19:36;;;;;;;28.10;19.70;;;;;;;-2.42;97.14;101001.55;105446;1260;72186;-69
2023/01/26 01:22:05;;;;;;;27.70;21.10;;;;;;;-2.38;97.19;100996.61;105427;1261;59671;-70
2023/01/26 01:24:34;;;;;;;33.40;23.60;;;;;;;-2.37;96.93;100994.05;105510;1254;61249;-68
2023/01/26 01:27:02;;;;;;;30.60;21.90;;;;;;;-2.36;96.76;100995.91;105571;1254;73179;-68
2023/01/26 01:29:30;;;;;;;30.60;21.90;;;;;;;-2.36;97.05;100996.46;105328;1254;68653;-68
2023/01/26 01:31:58;;;;;;;26.80;19.10;;;;;;;-2.31;97.17;100999.16;105358;1258;72311;-68
2023/01/26 01:34:27;;;;;;;29.10;20.60;;;;;;;-2.27;96.96;100999.34;105488;1267;59688;-68
2023/01/26 01:36:57;;;;;;;33.80;22.20;;;;;;;-2.23;96.74;100993.48;105439;1255;60331;-70
2023/01/26 01:39:26;;;;;;;33.10;23.60;;;;;;;-2.20;96.85;100990.22;105629;1260;74271;-68
2023/01/26 01:41:54;;;;;;;31.40;22.60;;;;;;;-2.13;96.87;100993.36;105218;1260;67187;-69
2023/01/26 01:44:24;;;;;;;30.60;20.90;;;;;;;-2.13;96.45;100985.27;105948;1259;73672;-69
2023/01/26 01:46:56;;;;;;;32.50;22.30;;;;;;;-2.14;95.84;100983.05;105516;1254;60549;-68
2023/01/26 01:49:27;;;;;;;30.00;20.10;;;;;;;-2.18;95.84;100981.11;105510;1257;60426;-69
2023/01/26 01:52:09;;;;;;;57.90;38.30;;;;;;;-2.19;95.97;100978.02;105329;1257;71681;-68
2023/01/26 01:54:43;;;;;;;33.00;23.50;;;;;;;-2.19;95.63;100970.52;105392;1257;69585;-69
2023/01/26 01:57:16;;;;;;;;;;;;;;;-2.20;95.67;100963.06;105536;1254;72824;-66
2023/01/26 01:59:50;;;;;;;36.80;24.10;;;;;;;-2.25;95.60;100961.20;103912;1260;1016389;-68
2023/01/26 02:02:18;;;;;;;37.90;22.40;;;;;;;-2.26;95.79;100958.79;105281;1262;59743;-66
2023/01/26 02:04:48;;;;;;;39.90;24.70;;;;;;;-2.23;95.59;100957.52;105499;1256;73163;-66
2023/01/26 02:07:16;;;;;;;28.80;20.20;;;;;;;-2.23;95.47;100957.46;105626;1260;66904;-69
2023/01/26 02:12:31;;;;;;;37.80;23.80;;;;;;;-2.21;95.16;100952.05;105355;1259;59725;-67
2023/01/26 02:14:59;;;;;;;36.60;23.80;;;;;;;-2.26;95.07;100944.78;105473;1254;59841;-69
2023/01/26 02:17:29;;;;;;;35.30;23.20;;;;;;;-2.27;95.23;100948.17;105241;1254;74076;-67
2023/01/26 02:20:06;;;;;;;35.60;24.80;;;;;;;-2.26;95.45;100941.92;105281;1254;67965;-68
2023/01/26 02:23:00;;;;;;;45.20;28.70;;;;;;;-2.27;95.50;100936.94;105323;1260;72320;-67
2023/01/26 02:25:29;;;;;;;35.90;25.10;;;;;;;-2.21;95.58;100940.94;105332;1260;61708;-68
2023/01/26 02:27:57;;;;;;;38.50;26.70;;;;;;;-2.18;95.27;100940.05;105399;1260;62229;-67
2023/01/26 02:30:26;;;;;;;39.40;27.70;;;;;;;-2.17;95.28;100939.11;105442;1260;73964;-68
2023/01/26 02:32:54;;;;;;;38.40;26.00;;;;;;;-2.18;95.07;100933.70;105524;1255;68405;-68
2023/01/26 02:35:25;;;;;;;37.80;23.70;;;;;;;-2.19;95.22;100929.23;105497;1254;74510;-68
2023/01/26 02:37:54;;;;;;;41.80;27.30;;;;;;;-2.20;95.16;100926.28;105502;1257;63048;-68
2023/01/26 02:40:39;;;;;;;41.10;26.00;;;;;;;-2.22;94.89;100930.90;105533;1254;60753;-68
2023/01/26 02:43:07;;;;;;;39.20;24.90;;;;;;;-2.21;94.97;100926.02;105475;1254;72737;-68
2023/01/26 02:45:37;;;;;;;42.30;25.50;;;;;;;-2.17;95.05;100924.47;105489;1260;68177;-67
2023/01/26 02:48:08;;;;;;;39.90;25.30;;;;;;;-2.20;95.13;100921.57;105419;1260;72406;-69
2023/01/26 02:50:36;;;;;;;39.20;24.80;;;;;;;-2.19;95.20;100919.21;105362;1255;59602;-70
2023/01/26 02:53:05;;;;;;;39.90;26.00;;;;;;;-2.16;95.07;100914.77;106021;1257;60840;-70
2023/01/26 02:55:33;;;;;;;38.60;24.80;;;;;;;-2.17;95.46;100912.57;105437;1254;71457;-68
2023/01/26 02:58:03;;;;;;;40.70;24.80;;;;;;;-2.17;94.95;100913.21;105529;1257;67646;-69
2023/01/26 03:00:35;;;;;;;36.30;25.00;;;;;;;-2.16;94.89;100910.73;105969;1254;73106;-68
2023/01/26 03:03:10;;;;;;;39.40;26.60;;;;;;;-2.14;95.09;100905.45;105535;1257;60079;-68
2023/01/26 03:05:41;;;;;;;41.30;28.60;;;;;;;-2.14;94.92;100897.83;105418;1254;60477;-67
2023/01/26 03:08:09;;;;;;;44.00;29.50;;;;;;;-2.15;94.92;100893.92;105753;1255;73221;-70
2023/01/26 03:27:25;;;;;;;49.60;33.80;;;;;;;-2.08;94.79;100879.41;104367;1270;71273;-70
2023/01/26 03:29:57;;;;;;;42.30;30.30;;;;;;;-2.10;95.24;100880.13;104538;1273;68845;-68
2023/01/26 03:32:29;;;;;;;48.70;30.70;;;;;;;-2.07;95.15;100877.36;104347;1267;647905;-68
2023/01/26 03:35:00;;;;;;;54.00;33.40;;;;;;;-2.04;95.24;100878.83;104903;1266;59262;-67
2023/01/26 03:37:35;;;;;;;49.10;30.10;;;;;;;-2.01;95.38;100874.89;105438;1266;59275;-68
2023/01/26 03:56:53;;;;;;;37.40;23.90;;;;;;;-1.89;94.65;100872.47;105611;1263;68397;-68
2023/01/26 03:59:36;;;;;;;44.20;28.20;;;;;;;-1.86;94.51;100866.56;105414;1266;73558;-70
2023/01/26 04:10:36;;;;;;;40.00;28.20;;;;;;;-1.76;94.29;100873.94;104914;1266;67220;-72
2023/01/26 11:51:09;;;;;;;33.60;21.60;;;;;;;-0.35;92.87;100689.52;102895;1294;61703;-73
2023/01/26 11:53:52;;;;;;;26.60;17.70;;;;;;;-0.31;92.58;100689.80;104061;1277;70835;-72
2023/01/26 11:56:48;;;;;;;29.40;20.00;;;;;;;-0.26;91.88;100687.17;104323;1279;67739;-75
2023/01/26 11:59:33;;;;;;;34.70;20.00;;;;;;;-0.22;91.41;100686.87;104201;1281;73091;-76
2023/01/26 12:02:20;;;;;;;29.00;20.50;;;;;;;-0.18;90.94;100687.86;105026;1265;59673;-78
2023/01/26 12:04:51;;;;;;;35.20;21.40;;;;;;;-0.12;90.49;100684.79;104936;1271;62042;-77
2023/01/26 12:07:58;;;;;;;32.00;19.60;;;;;;;-0.07;90.02;100686.92;104798;1265;74120;-78
2023/01/26 12:10:53;;;;;;;27.20;20.20;;;;;;;0.01;90.35;100685.71;104964;1266;69126;-77
2023/01/26 12:20:48;;;;;;;31.80;19.00;;;;;;;-0.03;88.38;100679.28;102373;1299;600365;-74
2023/01/26 12:23:28;;;;;;;25.20;15.20;;;;;;;-0.10;88.08;100677.69;104726;1274;61543;-74
2023/01/26 12:26:02;;;;;;;34.20;20.40;;;;;;;-0.11;87.72;100676.80;105069;1270;61173;-76
2023/01/26 12:28:53;;;;;;;31.70;20.10;;;;;;;-0.15;87.50;100680.04;105952;1261;71591;-75
2023/01/26 12:31:25;;;;;;;33.50;20.80;;;;;;;-0.20;87.76;100680.50;106340;1263;68933;-75
2023/01/26 12:33:54;;;;;;;39.00;21.40;;;;;;;-0.21;88.13;100682.88;106073;1257;624584;-76
2023/01/26 12:36:54;;;;;;;39.10;22.40;;;;;;;-0.20;88.19;100685.09;106458;1257;60036;-79
2023/01/26 12:40:06;;;;;;;31.40;20.90;;;;;;;-0.15;88.59;100683.05;106755;1257;60427;-77
2023/01/26 12:42:41;;;;;;;43.10;22.00;;;;;;;-0.14;88.53;100676.06;107198;1258;71651;-76
2023/01/26 12:45:17;;;;;;;41.10;24.60;;;;;;;-0.11;88.42;100672.23;106188;1257;69234;-73
2023/01/26 12:47:55;;;;;;;38.20;21.50;;;;;;;-0.10;87.80;100669.10;105546;1258;72226;-77
2023/01/26 12:50:29;;;;;;;39.00;21.30;;;;;;;-0.10;87.69;100665.92;106261;1257;59740;-79
2023/01/26 12:53:05;;;;;;;43.70;22.70;;;;;;;-0.12;87.24;100666.70;105835;1257;60959;-75
2023/01/26 12:55:43;;;;;;;42.80;23.80;;;;;;;-0.15;86.90;100663.80;105650;1258;74535;-73
2023/01/26 12:58:17;;;;;;;40.00;22.50;;;;;;;-0.16;86.82;100667.39;105535;1261;67882;-71
2023/01/26 13:01:03;;;;;;;39.10;22.20;;;;;;;-0.16;86.44;100668.69;105650;1262;73316;-72
2023/01/26 13:03:58;;;;;;;40.10;21.10;;;;;;;-0.16;86.44;100663.90;105547;1262;59711;-76
2023/01/26 13:06:27;;;;;;;39.70;21.20;;;;;;;-0.17;85.93;100661.85;106152;1257;61875;-75
2023/01/26 13:09:19;;;;;;;40.70;22.20;;;;;;;-0.22;85.85;100654.15;106979;1257;74895;-75
2023/01/26 13:11:53;;;;;;;36.60;21.50;;;;;;;-0.24;85.81;100656.06;106824;1257;66273;-76
2023/01/26 13:14:24;;;;;;;38.10;19.90;;;;;;;-0.23;85.73;100657.77;106722;1262;71861;-70
2023/01/26 13:16:54;;;;;;;43.80;24.30;;;;;;;-0.22;85.79;100657.12;105080;1262;1002672;-75
2023/01/26 13:19:45;;;;;;;36.10;19.50;;;;;;;-0.20;85.93;100656.41;105372;1257;60956;-71
2023/01/26 13:22:18;;;;;;;39.10;22.00;;;;;;;-0.15;85.83;100653.55;105457;1264;74761;-76
2023/01/26 13:25:07;;;;;;;33.80;21.30;;;;;;;-0.14;85.40;100656.84;105569;1263;67363;-76
2023/01/26 13:27:53;;;;;;;30.90;18.80;;;;;;;-0.15;85.40;100653.01;105263;1260;73486;-76
2023/01/26 13:30:22;;;;;;;;;;;;;;;-0.15;85.44;100650.56;105348;1261;60235;-75
2023/01/26 13:32:52;;;;;;;43.00;23.60;;;;;;;-0.13;85.42;100648.38;105432;1260;62303;-76
2023/01/26 13:35:24;;;;;;;38.00;20.90;;;;;;;-0.10;85.27;100645.70;105228;1260;72947;-75
2023/01/26 13:37:57;;;;;;;34.40;19.70;;;;;;;-0.10;85.38;100644.64;105474;1261;69479;-75
2023/01/26 13:40:42;;;;;;;35.50;19.90;;;;;;;-0.14;85.39;100648.17;105693;1261;74162;-72
2023/01/26 13:43:22;;;;;;;35.50;20.40;;;;;;;-0.17;85.77;100646.35;105417;1262;61716;-75
2023/01/26 13:46:07;;;;;;;37.10;20.60;;;;;;;-0.19;85.66;100642.92;105589;1261;60277;-77
2023/01/26 13:48:43;;;;;;;34.80;20.20;;;;;;;-0.21;85.95;100640.61;105575;1267;72684;-77
2023/01/26 13:51:31;;;;;;;29.90;18.50;;;;;;;-0.17;86.19;100644.06;105478;1265;69735;-73
2023/01/26 13:54:12;;;;;;;29.30;17.50;;;;;;;-0.15;86.07;100648.61;105306;1260;72705;-79
2023/01/26 22:06:48;;;;;;;42.10;22.10;;;;;;;-1.30;100.00;100521.98;103679;1292;600921;-74
2023/01/26 22:09:20;;;;;;;39.30;18.80;;;;;;;-1.31;100.00;100520.48;105363;1274;61483;-71
2023/01/26 22:11:49;;;;;;;36.70;24.60;;;;;;;-1.28;100.00;100522.01;105491;1268;61128;-70
2023/01/26 22:22:31;;;;;;;38.00;23.40;;;;;;;-0.95;100.00;100520.20;102818;1289;600390;-79
2023/01/26 22:25:00;;;;;;;35.90;21.60;;;;;;;-0.88;100.00;100516.68;105644;1269;60382;-70
2023/01/26 22:27:28;;;;;;;35.50;21.10;;;;;;;-0.83;100.00;100511.98;105305;1266;61766;-75
2023/01/26 22:29:57;;;;;;;41.20;22.60;;;;;;;-0.80;100.00;100511.46;105648;1260;73996;-73
2023/01/26 22:32:26;;;;;;;38.00;22.30;;;;;;;-0.81;100.00;100502.98;105907;1261;68705;-70
2023/01/26 22:34:54;;;;;;;37.00;23.10;;;;;;;-0.81;100.00;100507.17;105888;1257;73893;-70
2023/01/26 22:37:23;;;;;;;38.00;23.50;;;;;;;-0.75;100.00;100503.69;105711;1256;584727;-71
2023/01/26 22:39:51;;;;;;;33.10;20.50;;;;;;;-0.69;100.00;100500.14;106002;1260;60025;-71
2023/01/26 22:42:20;;;;;;;37.30;21.30;;;;;;;-0.64;100.00;100501.89;105861;1254;72020;-70
2023/01/26 22:44:49;;;;;;;37.40;22.70;;;;;;;-0.62;100.00;100498.49;106201;1254;67616;-72
2023/01/26 22:47:17;;;;;;;39.90;24.40;;;;;;;-0.60;99.87;100498.77;106514;1254;73928;-70
2023/01/26 22:49:46;;;;;;;40.00;23.60;;;;;;;-0.59;99.35;100495.48;106282;1255;61796;-72
2023/01/26 22:52:14;;;;;;;33.30;20.30;;;;;;;-0.58;99.10;100495.59;106325;1251;62014;-75
2023/01/26 22:54:43;;;;;;;38.30;23.00;;;;;;;-0.60;98.80;100491.94;106898;1254;72672;-68
2023/01/26 22:57:14;;;;;;;33.80;20.00;;;;;;;-0.57;98.82;100487.33;105606;1257;67585;-68
2023/01/26 22:59:42;;;;;;;43.40;24.60;;;;;;;-0.49;98.56;100489.41;105688;1254;72554;-68
2023/01/26 23:02:11;;;;;;;47.60;25.90;;;;;;;-0.49;98.22;100487.44;105964;1253;60858;-70
2023/01/26 23:04:42;;;;;;;38.40;22.00;;;;;;;-0.48;98.02;100483.30;105684;1256;1002539;-77
2023/01/26 23:07:10;;;;;;;36.50;22.60;;;;;;;-0.49;97.59;100483.54;106084;1258;73609;-73
2023/01/26 23:09:38;;;;;;;43.80;24.90;;;;;;;-0.56;97.09;100481.26;106199;1256;67985;-69
2023/01/26 23:12:07;;;;;;;45.40;26.40;;;;;;;-0.57;97.15;100478.93;106106;1252;74258;-71
2023/01/26 23:14:35;;;;;;;41.90;23.40;;;;;;;-0.56;97.40;100475.31;106019;1252;61135;-72
2023/01/26 23:17:04;;;;;;;40.80;23.20;;;;;;;-0.49;97.46;100476.50;106300;1252;59749;-70
2023/01/26 23:19:33;;;;;;;37.90;22.20;;;;;;;-0.46;97.18;100474.36;106053;1256;73419;-73
2023/01/26 23:22:01;;;;;;;45.40;25.70;;;;;;;-0.43;97.20;100480.11;105981;1252;68631;-72
2023/01/26 23:24:29;;;;;;;51.00;30.50;;;;;;;-0.47;96.68;100478.06;105454;1254;1003074;-71
2023/01/26 23:26:57;;;;;;;42.90;25.00;;;;;;;-0.55;96.86;100481.48;105939;1255;59828;-71
2023/01/26 23:29:25;;;;;;;45.20;26.30;;;;;;;-0.58;96.98;100481.66;106091;1257;60677;-70
2023/01/26 23:31:53;;;;;;;49.40;27.80;;;;;;;-0.61;97.17;100479.05;106130;1256;72685;-73
2023/01/26 23:34:21;;;;;;;51.90;29.20;;;;;;;-0.66;97.65;100477.60;106046;1254;67558;-72
2023/01/26 23:36:50;;;;;;;49.50;28.00;;;;;;;-0.68;97.79;100487.35;106176;1256;71548;-74
2023/01/26 23:39:18;;;;;;;57.60;30.40;;;;;;;-0.72;97.93;100482.80;105902;1253;61444;-71
2023/01/26 23:41:48;;;;;;;50.00;26.50;;;;;;;-0.73;98.25;100482.02;106078;1254;59546;-72
2023/01/26 23:44:18;;;;;;;54.00;32.00;;;;;;;-0.70;98.66;100480.64;106053;1256;74813;-73
2023/01/26 23:46:47;;;;;;;51.80;31.50;;;;;;;-0.70;98.73;100479.40;106102;1256;68631;-72
2023/01/26 23:49:15;;;;;;;54.70;31.30;;;;;;;-0.72;98.79;100481.17;105805;1252;73647;-74
2023/01/26 23:51:43;;;;;;;52.90;28.90;;;;;;;-0.71;99.10;100479.66;105894;1258;59750;-71
2023/01/26 23:54:11;;;;;;;49.10;28.20;;;;;;;-0.72;98.93;100476.83;106194;1257;59570;-71
2023/01/26 23:56:39;;;;;;;52.80;28.40;;;;;;;-0.72;99.43;100477.16;105947;1253;72876;-71
2023/01/26 23:59:07;;;;;;;54.60;31.60;;;;;;;-0.72;99.46;100475.77;105951;1254;67701;-71
